Main page
METAR-TAF:

METAR-TAF

Airports :

João Paulo II Airport

Ponta Delgada, Azores, Portugal

latitude: 37-44N, longitude: 025-42W, elevation: 71 m

Current weather observation

The report was made 22 minutes ago, at 20:30 UTC
Calm wind
Temperature 14°C
Humidity 82%
Pressure 1027 hPa
Visibility 10 km or more
Scattered clouds at a height of 1500 ft

METAR: LPPD 212030Z 00000KT 9999 SCT015 14/11 Q1027

Time: 19:52 (20:52 UTC)

Forecast

The report was made 3 hours and 52 minutes ago, at 17:00 UTC
Forecast valid from 21 at 18 UTC to 22 at 18 UTC
Wind 5 kt from variable directions
Visibility 10 km or more
Few clouds at a height of 1500 ft
Broken clouds at a height of 3000 ft
Temporary
from 21 at 18 UTC to 22 at 18 UTC
Scattered clouds at a height of 1500 ft

TAF: LPPD 211700Z 2118/2218 VRB05KT 9999 FEW015 BKN030 TEMPO 2118/2218 SCT015

Weather observations and forecasts of more than 4000 airports (METAR and TAF reports).

The available stations are represented by yellow and red dots on the map.

Hover mouse over dot to see the name of the station.

Then click to see weather observations and forecasts.

To change the map : click on the green buttons with a black cross to zoom in, on the green button with a dash to zoom out, or on the green arrows for adjacent maps.


METAR-TAF: